createdAt,value
2024-04-24T00:00:14.759Z,985.49
2024-04-24T00:01:14.833Z,985.51
2024-04-24T00:02:14.806Z,985.53
2024-04-24T00:03:14.801Z,985.50
2024-04-24T00:04:14.795Z,985.47
2024-04-24T00:05:14.793Z,985.53
2024-04-24T00:06:14.751Z,985.45
2024-04-24T00:07:14.775Z,985.46
2024-04-24T00:08:14.796Z,985.50
2024-04-24T00:09:14.718Z,985.57
2024-04-24T00:10:14.721Z,985.59
2024-04-24T00:11:14.745Z,985.48
2024-04-24T00:12:14.709Z,985.47
2024-04-24T00:13:14.684Z,985.38
2024-04-24T00:14:14.727Z,985.37
2024-04-24T00:15:14.728Z,985.35
2024-04-24T00:16:14.690Z,985.36
2024-04-24T00:17:14.764Z,985.34
2024-04-24T00:18:14.838Z,985.26
2024-04-24T00:19:14.654Z,985.25
2024-04-24T00:20:14.674Z,985.24
2024-04-24T00:21:14.631Z,985.25
2024-04-24T00:22:14.637Z,985.17
2024-04-24T00:23:14.835Z,985.19
2024-04-24T00:24:14.609Z,985.15
2024-04-24T00:25:15.635Z,985.10
2024-04-24T00:26:14.659Z,985.10
2024-04-24T00:27:14.597Z,985.12
2024-04-24T00:28:14.589Z,985.00
2024-04-24T00:29:14.724Z,985.02
2024-04-24T00:30:14.644Z,984.97
2024-04-24T00:31:14.565Z,984.99
2024-04-24T00:32:14.591Z,984.96
2024-04-24T00:33:14.713Z,984.93
2024-04-24T00:34:14.681Z,984.97
2024-04-24T00:35:14.669Z,984.97
2024-04-24T00:36:14.616Z,985.02
2024-04-24T00:37:14.529Z,984.95
2024-04-24T00:38:14.591Z,984.93
2024-04-24T00:39:14.537Z,984.89
2024-04-24T00:40:14.571Z,984.89
2024-04-24T00:41:14.574Z,984.95
2024-04-24T00:42:14.515Z,984.91
2024-04-24T00:43:14.518Z,984.85
2024-04-24T00:44:14.597Z,984.92
2024-04-24T00:45:14.530Z,984.80
2024-04-24T00:46:14.515Z,984.77
2024-04-24T00:47:14.610Z,984.78
2024-04-24T00:48:14.589Z,984.82
2024-04-24T00:49:14.464Z,984.81
2024-04-24T00:50:14.560Z,984.75
2024-04-24T00:51:14.502Z,984.75
2024-04-24T00:52:14.470Z,984.76
2024-04-24T00:53:14.484Z,984.69
2024-04-24T00:54:14.471Z,984.74
2024-04-24T00:55:14.446Z,984.72
2024-04-24T00:56:14.583Z,984.67
2024-04-24T00:57:14.427Z,984.66
2024-04-24T00:58:14.414Z,984.66
2024-04-24T00:59:15.460Z,984.68
2024-04-24T01:00:14.402Z,984.67
2024-04-24T01:01:14.422Z,984.59
2024-04-24T01:02:14.472Z,984.55
2024-04-24T01:03:15.440Z,984.51
2024-04-24T01:04:14.458Z,984.53
2024-04-24T01:05:14.431Z,984.50
2024-04-24T01:06:14.453Z,984.47
2024-04-24T01:07:14.478Z,984.47
2024-04-24T01:08:15.376Z,984.43
2024-04-24T01:09:14.368Z,984.44
2024-04-24T01:10:14.368Z,984.44
2024-04-24T01:11:14.421Z,984.42
2024-04-24T01:12:14.339Z,984.39
2024-04-24T01:13:14.384Z,984.36
2024-04-24T01:14:14.364Z,984.38
2024-04-24T01:15:14.335Z,984.40
2024-04-24T01:16:14.355Z,984.39
2024-04-24T01:17:14.377Z,984.44
2024-04-24T01:18:14.395Z,984.36
2024-04-24T01:19:14.317Z,984.40
2024-04-24T01:20:14.313Z,984.29
2024-04-24T01:21:14.334Z,984.36
2024-04-24T01:22:14.277Z,984.37
2024-04-24T01:23:14.350Z,984.42
2024-04-24T01:24:14.395Z,984.37
2024-04-24T01:25:14.271Z,984.44
2024-04-24T01:26:14.371Z,984.42
2024-04-24T01:27:14.260Z,984.37
2024-04-24T01:28:14.265Z,984.47
2024-04-24T01:29:14.327Z,984.40
2024-04-24T01:30:14.257Z,984.42
2024-04-24T01:31:14.259Z,984.41
2024-04-24T01:32:14.365Z,984.43
2024-04-24T01:33:14.343Z,984.33
2024-04-24T01:34:14.233Z,984.35
2024-04-24T01:35:14.241Z,984.33
2024-04-24T01:36:14.219Z,984.31
2024-04-24T01:37:14.220Z,984.33
2024-04-24T01:38:14.242Z,984.22
2024-04-24T01:39:14.184Z,984.25
2024-04-24T01:40:14.341Z,984.29
2024-04-24T01:41:14.307Z,984.23
2024-04-24T01:42:14.163Z,984.24
2024-04-24T01:43:14.182Z,984.32
2024-04-24T01:44:14.206Z,984.16
2024-04-24T01:45:14.175Z,984.20
2024-04-24T01:46:14.221Z,984.19
2024-04-24T01:47:14.268Z,984.17
2024-04-24T01:48:14.210Z,984.15
2024-04-24T01:49:14.149Z,984.14
2024-04-24T01:50:14.243Z,984.14
2024-04-24T01:51:14.196Z,984.12
2024-04-24T01:52:14.130Z,984.11
2024-04-24T01:53:14.170Z,984.08
2024-04-24T01:54:14.104Z,984.07
2024-04-24T01:55:14.130Z,984.05
2024-04-24T01:56:14.147Z,984.01
2024-04-24T01:57:14.124Z,984.05
2024-04-24T01:58:14.109Z,984.04
2024-04-24T01:59:14.153Z,984.05
2024-04-24T02:00:14.076Z,984.00
2024-04-24T02:01:14.211Z,983.97
2024-04-24T02:02:14.137Z,983.93
2024-04-24T02:03:14.121Z,983.90
2024-04-24T02:04:14.089Z,983.91
2024-04-24T02:05:14.052Z,983.92
2024-04-24T02:06:14.062Z,983.88
2024-04-24T02:07:14.092Z,983.84
2024-04-24T02:08:14.222Z,983.89
2024-04-24T02:09:14.035Z,983.88
2024-04-24T02:10:14.033Z,983.93
2024-04-24T02:11:14.038Z,983.94
2024-04-24T02:12:16.671Z,983.81
2024-04-24T02:13:15.003Z,983.81
2024-04-24T02:14:14.086Z,983.86
2024-04-24T02:15:14.013Z,983.80
2024-04-24T02:16:13.987Z,983.88
2024-04-24T02:17:14.041Z,983.78
2024-04-24T02:18:14.049Z,983.79
2024-04-24T02:19:13.988Z,983.82
2024-04-24T02:20:13.996Z,983.77
2024-04-24T02:21:13.976Z,983.79
2024-04-24T02:22:13.947Z,983.83
2024-04-24T02:23:13.970Z,983.83
2024-04-24T02:24:13.980Z,983.79
2024-04-24T02:25:13.938Z,983.81
2024-04-24T02:26:13.970Z,983.79
2024-04-24T02:27:13.923Z,983.75
2024-04-24T02:28:13.923Z,983.71
2024-04-24T02:29:13.967Z,983.68
2024-04-24T02:30:13.911Z,983.69
2024-04-24T02:31:13.920Z,983.72
2024-04-24T02:32:13.997Z,983.67
2024-04-24T02:33:14.134Z,983.68
2024-04-24T02:34:13.906Z,983.70
2024-04-24T02:35:14.024Z,983.65
2024-04-24T02:36:13.868Z,983.69
2024-04-24T02:37:14.439Z,983.73
2024-04-24T02:38:13.915Z,983.71
2024-04-24T02:39:13.879Z,983.72
2024-04-24T02:40:13.846Z,983.62
2024-04-24T02:41:13.874Z,983.64
2024-04-24T02:42:13.870Z,983.69
2024-04-24T02:43:13.866Z,983.60
2024-04-24T02:44:13.870Z,983.61
2024-04-24T02:45:13.840Z,983.63
2024-04-24T02:46:13.830Z,983.64
2024-04-24T02:47:13.887Z,983.63
2024-04-24T02:48:13.902Z,983.63
2024-04-24T02:49:13.812Z,983.63
2024-04-24T02:50:13.888Z,983.57
2024-04-24T02:51:13.804Z,983.60
2024-04-24T02:52:13.787Z,983.57
2024-04-24T02:53:13.821Z,983.55
2024-04-24T02:54:13.795Z,983.53
2024-04-24T02:55:13.785Z,983.52
2024-04-24T02:56:13.841Z,983.46
2024-04-24T02:57:13.774Z,983.49
2024-04-24T02:58:13.766Z,983.44
2024-04-24T02:59:13.900Z,983.40
2024-04-24T03:00:13.752Z,983.42
2024-04-24T03:01:13.745Z,983.42
2024-04-24T03:02:13.791Z,983.37
2024-04-24T03:03:13.888Z,983.44
2024-04-24T03:04:13.765Z,983.40
2024-04-24T03:05:13.777Z,983.31
2024-04-24T03:06:13.710Z,983.35
2024-04-24T03:07:13.715Z,983.35
2024-04-24T03:08:13.795Z,983.26
2024-04-24T03:09:13.710Z,983.30
2024-04-24T03:10:13.685Z,983.34
2024-04-24T03:11:13.727Z,983.32
2024-04-24T03:12:13.689Z,983.34
2024-04-24T03:13:13.678Z,983.22
2024-04-24T03:14:13.691Z,983.19
2024-04-24T03:15:13.659Z,983.15
2024-04-24T03:16:13.652Z,983.15
2024-04-24T03:17:13.683Z,983.21
2024-04-24T03:18:13.680Z,983.21
2024-04-24T03:19:13.656Z,983.21
2024-04-24T03:20:13.651Z,983.16
2024-04-24T03:21:13.624Z,983.19
2024-04-24T03:22:13.619Z,983.15
2024-04-24T03:23:13.657Z,983.13
2024-04-24T03:24:13.637Z,983.15
2024-04-24T03:25:13.611Z,983.16
2024-04-24T03:26:13.660Z,983.14
2024-04-24T03:27:13.611Z,983.16
2024-04-24T03:28:13.600Z,983.12
2024-04-24T03:29:13.615Z,983.15
2024-04-24T03:30:13.615Z,983.14
2024-04-24T03:31:13.589Z,983.13
2024-04-24T03:32:13.632Z,983.12
2024-04-24T03:33:13.696Z,983.11
2024-04-24T03:34:13.593Z,983.06
2024-04-24T03:35:13.583Z,983.06
2024-04-24T03:36:13.567Z,983.15
2024-04-24T03:37:13.556Z,983.06
2024-04-24T03:38:13.590Z,983.05
2024-04-24T03:39:13.555Z,983.04
2024-04-24T03:40:13.557Z,983.01
2024-04-24T03:41:13.592Z,983.06
2024-04-24T03:42:13.552Z,982.99
2024-04-24T03:43:14.401Z,983.01
2024-04-24T03:44:13.646Z,983.04
2024-04-24T03:45:13.510Z,983.11
2024-04-24T03:46:13.508Z,983.08
2024-04-24T03:47:13.562Z,983.02
2024-04-24T03:48:13.628Z,983.05
2024-04-24T03:49:13.520Z,983.05
2024-04-24T03:50:13.578Z,983.09
2024-04-24T03:51:13.499Z,983.08
2024-04-24T03:52:13.458Z,983.09
2024-04-24T03:53:13.503Z,983.07
2024-04-24T03:54:13.470Z,983.09
2024-04-24T03:55:13.468Z,983.16
2024-04-24T03:56:13.510Z,983.12
2024-04-24T03:57:13.466Z,983.07
2024-04-24T03:58:46.489Z,983.08
2024-04-24T03:59:13.502Z,983.06
2024-04-24T04:00:13.444Z,983.04
2024-04-24T04:01:13.486Z,983.06
2024-04-24T04:02:13.465Z,983.06
2024-04-24T04:03:13.477Z,983.06
2024-04-24T04:04:13.472Z,983.08
2024-04-24T04:05:13.454Z,983.06
2024-04-24T04:06:13.426Z,983.05
2024-04-24T04:07:13.389Z,983.01
2024-04-24T04:08:13.464Z,983.05
2024-04-24T04:09:13.408Z,983.05
2024-04-24T04:10:13.389Z,983.00
2024-04-24T04:11:13.425Z,983.05
2024-04-24T04:12:13.763Z,982.99
2024-04-24T04:13:13.367Z,983.01
2024-04-24T04:14:13.400Z,983.01
2024-04-24T04:15:13.354Z,982.95
2024-04-24T04:16:13.333Z,982.93
2024-04-24T04:17:13.453Z,982.95
2024-04-24T04:18:13.454Z,982.98
2024-04-24T04:19:13.342Z,982.97
2024-04-24T04:20:13.364Z,982.94
2024-04-24T04:21:13.321Z,982.95
2024-04-24T04:22:13.309Z,982.94
2024-04-24T04:23:13.332Z,982.90
2024-04-24T04:24:13.277Z,982.92
2024-04-24T04:25:13.309Z,982.86
2024-04-24T04:26:13.317Z,982.88
2024-04-24T04:27:13.294Z,982.84
2024-04-24T04:28:13.281Z,982.83
2024-04-24T04:29:13.308Z,982.84
2024-04-24T04:30:13.284Z,982.83
2024-04-24T04:31:13.269Z,982.87
2024-04-24T04:32:13.340Z,982.84
2024-04-24T04:33:13.292Z,982.85
2024-04-24T04:34:13.242Z,982.82
2024-04-24T04:35:13.313Z,982.86
2024-04-24T04:36:13.229Z,982.87
2024-04-24T04:37:13.225Z,982.81
2024-04-24T04:38:13.292Z,982.87
2024-04-24T04:39:13.316Z,982.86
2024-04-24T04:40:13.228Z,982.81
2024-04-24T04:41:13.287Z,982.84
2024-04-24T04:42:13.197Z,982.83
2024-04-24T04:43:13.191Z,982.82
2024-04-24T04:44:13.247Z,982.78
2024-04-24T04:45:13.213Z,982.81
2024-04-24T04:46:13.179Z,982.84
2024-04-24T04:47:13.301Z,982.78
2024-04-24T04:48:13.301Z,982.81
2024-04-24T04:49:13.153Z,982.80
2024-04-24T04:50:13.326Z,982.75
2024-04-24T04:51:13.179Z,982.74
2024-04-24T04:52:13.156Z,982.77
2024-04-24T04:53:13.190Z,982.78
2024-04-24T04:54:13.195Z,982.74
2024-04-24T04:55:13.166Z,982.77
2024-04-24T04:56:13.137Z,982.82
2024-04-24T04:57:13.135Z,982.82
2024-04-24T04:58:13.167Z,982.83
2024-04-24T04:59:13.142Z,982.84
2024-04-24T05:00:13.124Z,982.84
2024-04-24T05:01:13.175Z,982.87
2024-04-24T05:02:13.134Z,982.86
2024-04-24T05:03:13.133Z,982.82
2024-04-24T05:04:13.108Z,982.88
2024-04-24T05:05:13.122Z,982.79
2024-04-24T05:06:13.070Z,982.84
2024-04-24T05:07:13.095Z,982.82
2024-04-24T05:08:13.142Z,982.90
2024-04-24T05:09:13.052Z,982.80
2024-04-24T05:10:13.087Z,982.84
2024-04-24T05:11:13.301Z,982.81
2024-04-24T05:12:13.067Z,982.80
2024-04-24T05:13:13.050Z,982.70
2024-04-24T05:14:13.116Z,982.76
2024-04-24T05:15:13.055Z,982.76
2024-04-24T05:16:13.040Z,982.73
2024-04-24T05:17:13.185Z,982.73
2024-04-24T05:18:13.177Z,982.77
2024-04-24T05:19:13.070Z,982.74
2024-04-24T05:20:13.068Z,982.72
2024-04-24T05:21:13.079Z,982.69
2024-04-24T05:22:13.005Z,982.67
2024-04-24T05:23:12.998Z,982.59
2024-04-24T05:24:13.990Z,982.58
2024-04-24T05:25:13.191Z,982.62
2024-04-24T05:26:13.009Z,982.55
2024-04-24T05:27:12.971Z,982.56
2024-04-24T05:28:12.942Z,982.57
2024-04-24T05:29:13.065Z,982.61
2024-04-24T05:30:12.942Z,982.59
2024-04-24T05:31:12.956Z,982.61
2024-04-24T05:32:12.985Z,982.58
2024-04-24T05:33:12.994Z,982.60
2024-04-24T05:34:12.970Z,982.56
2024-04-24T05:35:12.952Z,982.48
2024-04-24T05:36:12.908Z,982.50
2024-04-24T05:37:13.697Z,982.51
2024-04-24T05:38:12.993Z,982.55
2024-04-24T05:39:12.888Z,982.51
2024-04-24T05:40:12.930Z,982.43
2024-04-24T05:41:12.930Z,982.52
2024-04-24T05:42:12.894Z,982.47
2024-04-24T05:43:16.159Z,982.42
2024-04-24T05:44:14.103Z,982.41
2024-04-24T05:45:12.877Z,982.45
2024-04-24T05:46:12.878Z,982.42
2024-04-24T05:47:12.877Z,982.42
2024-04-24T05:48:12.937Z,982.44
2024-04-24T05:49:13.880Z,982.36
2024-04-24T05:50:12.918Z,982.40
2024-04-24T05:51:12.874Z,982.34
2024-04-24T05:52:12.835Z,982.26
2024-04-24T05:53:12.860Z,982.35
2024-04-24T05:54:12.838Z,982.35
2024-04-24T05:55:12.842Z,982.36
2024-04-24T05:56:12.871Z,982.38
2024-04-24T05:57:12.828Z,982.40
2024-04-24T05:58:12.821Z,982.41
2024-04-24T05:59:13.966Z,982.40
2024-04-24T06:00:12.794Z,982.46
2024-04-24T06:01:12.899Z,982.43
2024-04-24T06:02:12.806Z,982.45
2024-04-24T06:03:12.784Z,982.47
2024-04-24T06:04:12.817Z,982.40
2024-04-24T06:05:12.800Z,982.46
2024-04-24T06:06:12.796Z,982.42
2024-04-24T06:07:12.868Z,982.40
2024-04-24T06:08:12.747Z,982.43
2024-04-24T06:09:12.737Z,982.38
2024-04-24T06:10:12.782Z,982.42
2024-04-24T06:11:12.770Z,982.44
2024-04-24T06:12:12.791Z,982.44
2024-04-24T06:13:12.766Z,982.38
2024-04-24T06:14:12.761Z,982.45
2024-04-24T06:15:12.712Z,982.38
2024-04-24T06:16:13.805Z,982.35
2024-04-24T06:17:12.949Z,982.40
2024-04-24T06:18:12.823Z,982.36
2024-04-24T06:19:12.727Z,982.38
2024-04-24T06:20:12.747Z,982.33
2024-04-24T06:21:12.698Z,982.34
2024-04-24T06:22:12.694Z,982.36
2024-04-24T06:23:12.754Z,982.37
2024-04-24T06:24:12.944Z,982.36
2024-04-24T06:25:12.683Z,982.33
2024-04-24T06:26:12.682Z,982.36
2024-04-24T06:27:12.645Z,982.29
2024-04-24T06:28:12.672Z,982.30
2024-04-24T06:29:12.687Z,982.29
2024-04-24T06:30:12.650Z,982.26
2024-04-24T06:31:12.639Z,982.32
2024-04-24T06:32:12.780Z,982.26
2024-04-24T06:33:12.731Z,982.26
2024-04-24T06:34:12.810Z,982.22
2024-04-24T06:35:12.641Z,982.21
2024-04-24T06:36:12.610Z,982.24
2024-04-24T06:37:12.599Z,982.19
2024-04-24T06:38:12.639Z,982.15
2024-04-24T06:39:12.655Z,982.24
2024-04-24T06:40:12.593Z,982.23
2024-04-24T06:41:14.936Z,982.12
2024-04-24T06:42:12.574Z,982.23
2024-04-24T06:43:12.575Z,982.15
2024-04-24T06:44:12.611Z,982.18
2024-04-24T06:45:12.607Z,982.22
2024-04-24T06:46:12.552Z,982.17
2024-04-24T06:47:12.623Z,982.20
2024-04-24T06:48:12.570Z,982.20
2024-04-24T06:49:12.549Z,982.23
2024-04-24T06:50:12.774Z,982.23
2024-04-24T06:51:12.556Z,982.34
2024-04-24T06:52:12.529Z,982.26
2024-04-24T06:53:12.543Z,982.26
2024-04-24T06:54:12.516Z,982.30
2024-04-24T06:55:12.513Z,982.34
2024-04-24T06:56:12.666Z,982.35
2024-04-24T06:57:12.503Z,982.32
2024-04-24T06:58:12.527Z,982.25
2024-04-24T06:59:12.513Z,982.28
2024-04-24T07:00:12.488Z,982.21
2024-04-24T07:01:12.651Z,982.22
2024-04-24T07:02:12.534Z,982.16
2024-04-24T07:03:12.464Z,982.23
2024-04-24T07:04:12.452Z,982.20
2024-04-24T07:05:12.519Z,982.19
2024-04-24T07:06:12.467Z,982.14
2024-04-24T07:07:12.469Z,982.15
2024-04-24T07:08:12.484Z,982.12
2024-04-24T07:09:12.438Z,982.12
2024-04-24T07:10:12.429Z,982.11
2024-04-24T07:11:12.469Z,982.11
2024-04-24T07:12:12.418Z,982.11
2024-04-24T07:13:12.494Z,982.08
2024-04-24T07:14:12.472Z,982.18
2024-04-24T07:15:12.411Z,982.13
2024-04-24T07:16:12.393Z,982.11
2024-04-24T07:17:12.466Z,982.04
2024-04-24T07:18:12.466Z,982.01
2024-04-24T07:19:14.817Z,981.95
2024-04-24T07:20:12.394Z,981.98
2024-04-24T07:21:12.385Z,981.91
2024-04-24T07:22:12.380Z,981.89
2024-04-24T07:23:12.370Z,981.88
2024-04-24T07:24:12.359Z,981.80
2024-04-24T07:25:12.352Z,981.83
2024-04-24T07:26:12.374Z,981.75
2024-04-24T07:27:14.499Z,981.77
2024-04-24T07:28:12.333Z,981.79
2024-04-24T07:29:12.362Z,981.76
2024-04-24T07:30:12.371Z,981.75
2024-04-24T07:31:12.336Z,981.86
2024-04-24T07:32:12.330Z,981.83
2024-04-24T07:33:12.458Z,981.86
2024-04-24T07:34:12.352Z,981.80
2024-04-24T07:35:12.336Z,981.86
2024-04-24T07:36:12.287Z,981.82
2024-04-24T07:37:12.308Z,981.85
2024-04-24T07:38:12.356Z,981.86
2024-04-24T07:39:12.870Z,981.83
2024-04-24T07:40:12.276Z,981.85
2024-04-24T07:41:12.370Z,981.81
2024-04-24T07:42:12.283Z,981.86
2024-04-24T07:43:12.278Z,981.81
2024-04-24T07:44:12.342Z,981.85
2024-04-24T07:45:12.255Z,981.87
2024-04-24T07:46:12.238Z,981.83
2024-04-24T07:47:12.389Z,981.84
2024-04-24T07:48:12.472Z,981.79
2024-04-24T07:49:12.222Z,981.83
2024-04-24T07:50:12.261Z,981.82
2024-04-24T07:51:12.439Z,981.81
2024-04-24T07:52:12.272Z,981.83
2024-04-24T07:53:12.275Z,981.78
2024-04-24T07:54:12.234Z,981.74
2024-04-24T07:55:12.191Z,981.72
2024-04-24T07:56:12.223Z,981.69
2024-04-24T07:57:12.211Z,981.60
2024-04-24T07:58:12.199Z,981.60
2024-04-24T07:59:12.206Z,981.59
2024-04-24T08:00:12.229Z,981.56
2024-04-24T08:01:12.180Z,981.58
2024-04-24T08:02:12.276Z,981.59
2024-04-24T08:03:12.156Z,981.59
2024-04-24T08:04:12.205Z,981.62
2024-04-24T08:05:12.212Z,981.62
2024-04-24T08:06:12.140Z,981.68
2024-04-24T08:07:12.169Z,981.63
2024-04-24T08:08:12.144Z,981.61
2024-04-24T08:09:12.134Z,981.61
2024-04-24T08:10:12.142Z,981.58
2024-04-24T08:11:12.191Z,981.64
2024-04-24T08:12:12.234Z,981.63
2024-04-24T08:13:12.108Z,981.59
2024-04-24T08:14:12.150Z,981.55
2024-04-24T08:15:12.086Z,981.55
2024-04-24T08:16:12.125Z,981.55
2024-04-24T08:17:12.248Z,981.55
2024-04-24T08:18:12.134Z,981.55
2024-04-24T08:19:12.074Z,981.63
2024-04-24T08:20:12.125Z,981.61
2024-04-24T08:21:12.091Z,981.67
2024-04-24T08:22:12.118Z,981.62
2024-04-24T08:23:15.362Z,981.62
2024-04-24T08:24:13.047Z,981.72
2024-04-24T08:25:12.035Z,981.66
2024-04-24T08:26:12.069Z,981.62
2024-04-24T08:27:13.145Z,981.59
2024-04-24T08:28:15.179Z,981.60
2024-04-24T08:29:13.059Z,981.55
2024-04-24T08:30:12.034Z,981.58
2024-04-24T08:31:12.009Z,981.60
2024-04-24T08:32:12.079Z,981.58
2024-04-24T08:33:12.107Z,981.54
2024-04-24T08:34:11.995Z,981.63
2024-04-24T08:35:12.996Z,981.63
2024-04-24T08:36:12.020Z,981.67
2024-04-24T08:37:11.993Z,981.70
2024-04-24T08:38:12.052Z,981.64
2024-04-24T08:39:11.965Z,981.69
2024-04-24T08:40:11.970Z,981.68
2024-04-24T08:41:11.978Z,981.70
2024-04-24T08:42:11.966Z,981.70
2024-04-24T08:43:11.961Z,981.71
2024-04-24T08:44:11.976Z,981.69
2024-04-24T08:45:11.943Z,981.66
2024-04-24T08:46:12.105Z,981.78
2024-04-24T08:47:11.956Z,981.71
2024-04-24T08:48:14.350Z,981.70
2024-04-24T08:49:12.663Z,981.76
2024-04-24T08:50:11.931Z,981.75
2024-04-24T08:51:11.949Z,981.68
2024-04-24T08:52:11.893Z,981.73
2024-04-24T08:53:11.956Z,981.70
2024-04-24T08:54:11.883Z,981.69
2024-04-24T08:55:11.985Z,981.72
2024-04-24T08:56:11.925Z,981.63
2024-04-24T08:57:11.896Z,981.68
2024-04-24T08:58:11.985Z,981.71
2024-04-24T08:59:11.898Z,981.67
2024-04-24T09:00:11.871Z,981.64
2024-04-24T09:01:11.955Z,981.67
2024-04-24T09:02:12.124Z,981.63
2024-04-24T09:03:11.979Z,981.58
2024-04-24T09:04:11.989Z,981.58
2024-04-24T09:05:11.915Z,981.52
2024-04-24T09:06:11.869Z,981.57
2024-04-24T09:07:11.848Z,981.50
2024-04-24T09:08:11.881Z,981.61
2024-04-24T09:09:11.856Z,981.53
2024-04-24T09:10:11.833Z,981.50
2024-04-24T09:11:11.835Z,981.40
2024-04-24T09:12:11.832Z,981.44
2024-04-24T09:13:14.561Z,981.37
2024-04-24T09:14:12.917Z,981.44
2024-04-24T09:15:11.804Z,981.42
2024-04-24T09:16:11.835Z,981.43
2024-04-24T09:17:11.903Z,981.29
2024-04-24T09:18:11.970Z,981.32
2024-04-24T09:19:11.809Z,981.28
2024-04-24T09:20:11.998Z,981.31
2024-04-24T09:21:11.792Z,981.37
2024-04-24T09:22:11.783Z,981.37
2024-04-24T09:23:11.862Z,981.32
2024-04-24T09:24:11.866Z,981.31
2024-04-24T09:25:11.768Z,981.27
2024-04-24T09:26:11.797Z,981.25
2024-04-24T09:27:11.755Z,981.25
2024-04-24T09:28:11.747Z,981.27
2024-04-24T09:29:11.853Z,981.25
2024-04-24T09:30:11.820Z,981.18
2024-04-24T09:31:11.721Z,981.19
2024-04-24T09:32:12.472Z,981.18
2024-04-24T09:33:11.890Z,981.11
2024-04-24T09:34:11.734Z,981.12
2024-04-24T09:35:11.730Z,981.04
2024-04-24T09:36:11.753Z,981.01
2024-04-24T09:37:11.707Z,980.98
2024-04-24T09:38:11.732Z,980.99
2024-04-24T09:39:11.749Z,980.93
2024-04-24T09:40:11.707Z,980.92
2024-04-24T09:41:11.734Z,980.94
2024-04-24T09:42:11.681Z,980.89
2024-04-24T09:43:11.704Z,980.85
2024-04-24T09:44:11.768Z,980.89
2024-04-24T09:45:11.681Z,980.94
2024-04-24T09:46:11.688Z,980.96
2024-04-24T09:47:11.673Z,980.93
2024-04-24T09:48:11.803Z,980.95
2024-04-24T09:49:11.730Z,980.98
2024-04-24T09:50:11.696Z,981.03
2024-04-24T09:51:11.934Z,980.95
2024-04-24T09:52:11.638Z,981.22
2024-04-24T09:53:11.665Z,981.20
2024-04-24T09:54:11.967Z,981.32
2024-04-24T09:55:11.641Z,981.40
2024-04-24T09:56:11.670Z,981.35
2024-04-24T09:57:11.660Z,981.42
2024-04-24T09:58:20.494Z,981.51
2024-04-24T09:59:11.662Z,981.43
2024-04-24T10:00:11.619Z,981.70
2024-04-24T10:01:11.657Z,981.57
2024-04-24T10:02:11.615Z,981.55
2024-04-24T10:03:11.604Z,981.49
2024-04-24T10:04:11.592Z,981.61
2024-04-24T10:05:11.684Z,981.48
2024-04-24T10:06:11.600Z,981.59
2024-04-24T10:07:14.216Z,981.59
2024-04-24T10:08:11.584Z,981.54
2024-04-24T10:09:11.570Z,981.43
2024-04-24T10:10:11.552Z,981.46
2024-04-24T10:11:11.631Z,981.42
2024-04-24T10:12:11.617Z,981.46
2024-04-24T10:13:11.544Z,981.44
2024-04-24T10:14:11.566Z,981.38
2024-04-24T10:15:11.569Z,981.30
2024-04-24T10:16:11.594Z,981.41
2024-04-24T10:17:11.553Z,981.47
2024-04-24T10:18:11.628Z,981.40
2024-04-24T10:19:11.539Z,981.36
2024-04-24T10:20:16.419Z,981.35
2024-04-24T10:21:13.635Z,981.28
2024-04-24T10:22:11.506Z,981.20
2024-04-24T10:23:11.560Z,981.21
2024-04-24T10:24:11.506Z,981.26
2024-04-24T10:25:11.493Z,981.20
2024-04-24T10:26:11.537Z,981.13
2024-04-24T10:27:11.475Z,981.12
2024-04-24T10:28:11.471Z,981.11
2024-04-24T10:29:11.494Z,981.03
2024-04-24T10:30:11.464Z,981.02
2024-04-24T10:31:11.481Z,980.98
2024-04-24T10:32:11.499Z,980.99
2024-04-24T10:33:11.623Z,980.98
2024-04-24T10:34:11.477Z,980.95
2024-04-24T10:35:11.455Z,980.85
2024-04-24T10:36:11.439Z,980.82
2024-04-24T10:37:11.445Z,980.82
2024-04-24T10:38:11.439Z,980.86
2024-04-24T10:39:11.453Z,980.82
2024-04-24T10:40:14.771Z,980.74
2024-04-24T10:41:12.457Z,980.77
2024-04-24T10:42:11.406Z,980.74
2024-04-24T10:43:11.398Z,980.70
2024-04-24T10:44:11.459Z,980.67
2024-04-24T10:45:11.407Z,980.62
2024-04-24T10:46:11.386Z,980.63
2024-04-24T10:47:11.437Z,980.64
2024-04-24T10:48:11.428Z,980.61
2024-04-24T10:49:11.387Z,980.66
2024-04-24T10:50:11.410Z,980.64
2024-04-24T10:51:11.380Z,980.72
2024-04-24T10:52:11.373Z,980.72
2024-04-24T10:53:11.387Z,980.64
2024-04-24T10:54:11.392Z,980.69
2024-04-24T10:55:12.678Z,980.67
2024-04-24T10:56:12.371Z,980.65
2024-04-24T10:57:11.331Z,980.66
2024-04-24T10:58:11.347Z,980.73
2024-04-24T10:59:11.417Z,980.66
2024-04-24T11:00:11.348Z,980.70
2024-04-24T11:01:11.353Z,980.63
2024-04-24T11:02:11.358Z,980.67
2024-04-24T11:03:11.417Z,980.71
2024-04-24T11:04:11.339Z,980.67
2024-04-24T11:05:11.357Z,980.75
2024-04-24T11:06:11.302Z,980.69
2024-04-24T11:07:15.907Z,980.68
2024-04-24T11:08:13.393Z,980.59
2024-04-24T11:09:11.323Z,980.64
2024-04-24T11:10:11.296Z,980.68
2024-04-24T11:11:11.365Z,980.63
2024-04-24T11:12:11.291Z,980.56
2024-04-24T11:13:11.256Z,980.48
2024-04-24T11:14:14.607Z,980.58
2024-04-24T11:15:11.271Z,980.58
2024-04-24T11:16:11.595Z,980.57
2024-04-24T11:17:11.301Z,980.52
2024-04-24T11:18:11.296Z,980.62
2024-04-24T11:19:11.254Z,980.59
2024-04-24T11:20:11.315Z,980.63
2024-04-24T11:21:11.221Z,980.58
2024-04-24T11:22:11.204Z,980.57
2024-04-24T11:23:11.218Z,980.57
2024-04-24T11:24:11.276Z,980.51
2024-04-24T11:25:11.228Z,980.60
2024-04-24T11:26:11.245Z,980.57
2024-04-24T11:27:11.191Z,980.61
2024-04-24T11:28:11.196Z,980.62
2024-04-24T11:29:11.251Z,980.66
2024-04-24T11:30:11.181Z,980.61
2024-04-24T11:31:11.381Z,980.69
2024-04-24T11:32:11.352Z,980.69
2024-04-24T11:33:11.242Z,980.68
2024-04-24T11:34:11.231Z,980.67
2024-04-24T11:35:11.218Z,980.60
2024-04-24T11:36:11.153Z,980.65
2024-04-24T11:37:11.136Z,980.65
2024-04-24T11:38:11.136Z,980.71
2024-04-24T11:39:11.111Z,980.61
2024-04-24T11:40:11.144Z,980.59
2024-04-24T11:41:11.165Z,980.61
2024-04-24T11:42:11.125Z,980.60
2024-04-24T11:43:11.112Z,980.64
2024-04-24T11:44:11.178Z,980.58
2024-04-24T11:45:11.116Z,980.53
2024-04-24T11:46:11.116Z,980.51
2024-04-24T11:47:11.115Z,980.50
2024-04-24T11:48:11.250Z,980.47
2024-04-24T11:49:11.160Z,980.60
2024-04-24T11:50:11.111Z,980.43
2024-04-24T11:51:11.200Z,980.47
2024-04-24T11:52:11.070Z,980.48
2024-04-24T11:53:11.155Z,980.46
2024-04-24T11:54:11.065Z,980.52
2024-04-24T11:55:11.110Z,980.48
2024-04-24T11:56:11.066Z,980.42
2024-04-24T11:57:11.070Z,980.40
2024-04-24T11:58:11.063Z,980.38
2024-04-24T11:59:11.057Z,980.45
2024-04-24T12:00:11.055Z,980.41
2024-04-24T12:01:11.064Z,980.41
2024-04-24T12:02:11.109Z,980.43
2024-04-24T12:03:11.254Z,980.46
2024-04-24T12:04:11.038Z,980.40
2024-04-24T12:05:11.041Z,980.48
2024-04-24T12:06:11.006Z,980.43
2024-04-24T12:07:11.058Z,980.51
2024-04-24T12:08:11.007Z,980.49
2024-04-24T12:09:10.975Z,980.57
2024-04-24T12:10:11.025Z,980.59
2024-04-24T12:11:11.037Z,980.60
2024-04-24T12:12:11.058Z,980.54
2024-04-24T12:13:10.996Z,980.54
2024-04-24T12:14:11.067Z,980.52
2024-04-24T12:15:10.968Z,980.60
2024-04-24T12:16:11.004Z,980.47
2024-04-24T12:17:10.983Z,980.51
2024-04-24T12:18:11.017Z,980.47
2024-04-24T12:19:10.965Z,980.45
2024-04-24T12:20:11.020Z,980.44
2024-04-24T12:21:10.944Z,980.41
2024-04-24T12:22:10.934Z,980.40
2024-04-24T12:23:10.981Z,980.37
2024-04-24T12:24:10.940Z,980.42
2024-04-24T12:25:10.929Z,980.30
2024-04-24T12:26:10.954Z,980.36
2024-04-24T12:27:10.919Z,980.31
2024-04-24T12:28:10.936Z,980.24